sensor_id;sensor_type;location;lat;lon;timestamp;P1;durP1;ratioP1;P2;durP2;ratioP2
69226;SDS011;56334;52.398;7.552;2023-02-23T00:00:07;53.55;;;21.77;;
69226;SDS011;56334;52.398;7.552;2023-02-23T00:02:47;58.28;;;24.17;;
69226;SDS011;56334;52.398;7.552;2023-02-23T00:05:15;56.40;;;23.27;;
69226;SDS011;56334;52.398;7.552;2023-02-23T00:07:42;56.03;;;24.80;;
69226;SDS011;56334;52.398;7.552;2023-02-23T00:12:36;55.53;;;22.92;;
69226;SDS011;56334;52.398;7.552;2023-02-23T00:15:02;64.60;;;26.40;;
69226;SDS011;56334;52.398;7.552;2023-02-23T00:17:28;60.15;;;25.75;;
69226;SDS011;56334;52.398;7.552;2023-02-23T00:19:55;65.47;;;24.45;;
69226;SDS011;56334;52.398;7.552;2023-02-23T00:22:25;59.30;;;24.45;;
69226;SDS011;56334;52.398;7.552;2023-02-23T00:24:51;55.75;;;24.60;;
69226;SDS011;56334;52.398;7.552;2023-02-23T00:27:18;60.83;;;26.35;;
69226;SDS011;56334;52.398;7.552;2023-02-23T00:29:45;56.63;;;24.05;;
69226;SDS011;56334;52.398;7.552;2023-02-23T00:32:13;60.58;;;24.65;;
69226;SDS011;56334;52.398;7.552;2023-02-23T00:34:46;60.50;;;24.40;;
69226;SDS011;56334;52.398;7.552;2023-02-23T00:37:16;62.33;;;25.25;;
69226;SDS011;56334;52.398;7.552;2023-02-23T00:39:42;62.00;;;26.08;;
69226;SDS011;56334;52.398;7.552;2023-02-23T00:42:08;55.55;;;23.40;;
69226;SDS011;56334;52.398;7.552;2023-02-23T00:44:34;59.45;;;24.02;;
69226;SDS011;56334;52.398;7.552;2023-02-23T00:47:04;56.38;;;24.58;;
69226;SDS011;56334;52.398;7.552;2023-02-23T00:49:30;61.88;;;24.73;;
69226;SDS011;56334;52.398;7.552;2023-02-23T00:51:57;57.67;;;24.98;;
69226;SDS011;56334;52.398;7.552;2023-02-23T00:54:24;59.03;;;25.10;;
69226;SDS011;56334;52.398;7.552;2023-02-23T00:56:50;63.88;;;27.15;;
69226;SDS011;56334;52.398;7.552;2023-02-23T00:59:16;58.42;;;23.85;;
69226;SDS011;56334;52.398;7.552;2023-02-23T01:01:42;68.97;;;25.70;;
69226;SDS011;56334;52.398;7.552;2023-02-23T01:04:10;61.20;;;25.63;;
69226;SDS011;56334;52.398;7.552;2023-02-23T01:06:36;61.72;;;24.10;;
69226;SDS011;56334;52.398;7.552;2023-02-23T01:09:06;55.63;;;23.13;;
69226;SDS011;56334;52.398;7.552;2023-02-23T01:11:33;60.88;;;25.60;;
69226;SDS011;56334;52.398;7.552;2023-02-23T01:13:59;62.80;;;26.23;;
69226;SDS011;56334;52.398;7.552;2023-02-23T01:16:27;58.33;;;24.95;;
69226;SDS011;56334;52.398;7.552;2023-02-23T01:18:55;52.47;;;23.30;;
69226;SDS011;56334;52.398;7.552;2023-02-23T01:21:25;52.92;;;22.70;;
69226;SDS011;56334;52.398;7.552;2023-02-23T01:23:52;52.97;;;22.60;;
69226;SDS011;56334;52.398;7.552;2023-02-23T01:26:19;62.28;;;25.70;;
69226;SDS011;56334;52.398;7.552;2023-02-23T01:28:52;52.20;;;22.73;;
69226;SDS011;56334;52.398;7.552;2023-02-23T01:31:19;59.83;;;26.83;;
69226;SDS011;56334;52.398;7.552;2023-02-23T01:33:45;55.55;;;23.15;;
69226;SDS011;56334;52.398;7.552;2023-02-23T01:36:12;59.20;;;25.83;;
69226;SDS011;56334;52.398;7.552;2023-02-23T01:38:38;65.40;;;25.73;;
69226;SDS011;56334;52.398;7.552;2023-02-23T01:41:04;60.35;;;24.13;;
69226;SDS011;56334;52.398;7.552;2023-02-23T01:43:34;57.25;;;24.38;;
69226;SDS011;56334;52.398;7.552;2023-02-23T01:46:01;63.95;;;25.77;;
69226;SDS011;56334;52.398;7.552;2023-02-23T01:48:28;57.88;;;25.00;;
69226;SDS011;56334;52.398;7.552;2023-02-23T01:53:28;44.33;;;20.45;;
69226;SDS011;56334;52.398;7.552;2023-02-23T01:55:56;57.78;;;24.13;;
69226;SDS011;56334;52.398;7.552;2023-02-23T01:58:23;58.85;;;23.25;;
69226;SDS011;56334;52.398;7.552;2023-02-23T02:00:52;64.35;;;25.17;;
69226;SDS011;56334;52.398;7.552;2023-02-23T02:03:30;62.75;;;26.33;;
69226;SDS011;56334;52.398;7.552;2023-02-23T02:05:58;63.75;;;26.40;;
69226;SDS011;56334;52.398;7.552;2023-02-23T02:08:26;66.50;;;26.95;;
69226;SDS011;56334;52.398;7.552;2023-02-23T02:10:53;53.80;;;22.85;;
69226;SDS011;56334;52.398;7.552;2023-02-23T02:13:28;61.38;;;25.52;;
69226;SDS011;56334;52.398;7.552;2023-02-23T02:18:30;60.35;;;25.52;;
69226;SDS011;56334;52.398;7.552;2023-02-23T02:48:23;56.80;;;22.63;;
69226;SDS011;56334;52.398;7.552;2023-02-23T02:53:26;59.97;;;25.85;;
69226;SDS011;56334;52.398;7.552;2023-02-23T02:55:53;60.05;;;23.73;;
69226;SDS011;56334;52.398;7.552;2023-02-23T02:58:20;53.63;;;22.38;;
69226;SDS011;56334;52.398;7.552;2023-02-23T03:00:49;62.80;;;26.20;;
69226;SDS011;56334;52.398;7.552;2023-02-23T03:03:36;71.05;;;27.48;;
69226;SDS011;56334;52.398;7.552;2023-02-23T03:06:24;56.15;;;22.40;;
69226;SDS011;56334;52.398;7.552;2023-02-23T03:09:13;67.80;;;26.42;;
69226;SDS011;56334;52.398;7.552;2023-02-23T03:12:11;64.47;;;24.08;;
69226;SDS011;56334;52.398;7.552;2023-02-23T03:17:45;69.82;;;27.30;;
69226;SDS011;56334;52.398;7.552;2023-02-23T03:26:08;67.78;;;26.98;;
69226;SDS011;56334;52.398;7.552;2023-02-23T03:28:57;72.70;;;27.30;;
69226;SDS011;56334;52.398;7.552;2023-02-23T03:35:03;71.47;;;26.73;;
69226;SDS011;56334;52.398;7.552;2023-02-23T03:38:04;72.63;;;27.00;;
69226;SDS011;56334;52.398;7.552;2023-02-23T03:40:50;72.00;;;27.55;;
69226;SDS011;56334;52.398;7.552;2023-02-23T03:43:37;67.38;;;27.17;;
69226;SDS011;56334;52.398;7.552;2023-02-23T03:46:23;62.58;;;24.33;;
69226;SDS011;56334;52.398;7.552;2023-02-23T03:49:09;77.78;;;26.98;;
69226;SDS011;56334;52.398;7.552;2023-02-23T03:51:56;72.70;;;26.83;;
69226;SDS011;56334;52.398;7.552;2023-02-23T03:54:44;72.70;;;28.42;;
69226;SDS011;56334;52.398;7.552;2023-02-23T03:57:31;75.32;;;27.48;;
69226;SDS011;56334;52.398;7.552;2023-02-23T04:00:19;76.78;;;27.40;;
69226;SDS011;56334;52.398;7.552;2023-02-23T04:05:49;67.03;;;26.00;;
69226;SDS011;56334;52.398;7.552;2023-02-23T04:08:34;69.10;;;26.80;;
69226;SDS011;56334;52.398;7.552;2023-02-23T04:11:23;75.85;;;27.73;;
69226;SDS011;56334;52.398;7.552;2023-02-23T04:14:14;70.45;;;27.50;;
69226;SDS011;56334;52.398;7.552;2023-02-23T04:19:52;75.40;;;26.80;;
69226;SDS011;56334;52.398;7.552;2023-02-23T04:22:19;76.32;;;27.80;;
69226;SDS011;56334;52.398;7.552;2023-02-23T04:24:45;75.20;;;27.58;;
69226;SDS011;56334;52.398;7.552;2023-02-23T04:27:12;71.25;;;27.52;;
69226;SDS011;56334;52.398;7.552;2023-02-23T04:29:38;70.45;;;25.65;;
69226;SDS011;56334;52.398;7.552;2023-02-23T04:32:06;73.07;;;26.85;;
69226;SDS011;56334;52.398;7.552;2023-02-23T04:34:32;67.13;;;27.02;;
69226;SDS011;56334;52.398;7.552;2023-02-23T04:36:59;77.88;;;28.80;;
69226;SDS011;56334;52.398;7.552;2023-02-23T04:39:25;70.32;;;27.83;;
69226;SDS011;56334;52.398;7.552;2023-02-23T04:41:51;74.38;;;28.23;;
69226;SDS011;56334;52.398;7.552;2023-02-23T04:44:19;65.38;;;25.92;;
69226;SDS011;56334;52.398;7.552;2023-02-23T04:46:47;71.82;;;26.70;;
69226;SDS011;56334;52.398;7.552;2023-02-23T04:49:13;75.43;;;27.50;;
69226;SDS011;56334;52.398;7.552;2023-02-23T04:51:39;69.85;;;26.52;;
69226;SDS011;56334;52.398;7.552;2023-02-23T04:54:05;63.97;;;25.55;;
69226;SDS011;56334;52.398;7.552;2023-02-23T04:56:31;75.65;;;27.55;;
69226;SDS011;56334;52.398;7.552;2023-02-23T04:58:57;66.47;;;26.40;;
69226;SDS011;56334;52.398;7.552;2023-02-23T05:01:24;57.50;;;22.05;;
69226;SDS011;56334;52.398;7.552;2023-02-23T05:03:51;66.47;;;25.08;;
69226;SDS011;56334;52.398;7.552;2023-02-23T05:06:19;62.65;;;23.85;;
69226;SDS011;56334;52.398;7.552;2023-02-23T05:08:45;63.72;;;25.92;;
69226;SDS011;56334;52.398;7.552;2023-02-23T05:11:12;64.63;;;23.63;;
69226;SDS011;56334;52.398;7.552;2023-02-23T05:13:39;70.63;;;25.98;;
69226;SDS011;56334;52.398;7.552;2023-02-23T05:16:05;65.15;;;23.83;;
69226;SDS011;56334;52.398;7.552;2023-02-23T05:18:31;64.45;;;24.33;;
69226;SDS011;56334;52.398;7.552;2023-02-23T05:24:01;49.22;;;20.08;;
69226;SDS011;56334;52.398;7.552;2023-02-23T05:26:27;70.13;;;25.10;;
69226;SDS011;56334;52.398;7.552;2023-02-23T05:28:53;81.85;;;28.20;;
69226;SDS011;56334;52.398;7.552;2023-02-23T05:31:20;67.63;;;25.90;;
69226;SDS011;56334;52.398;7.552;2023-02-23T05:33:46;61.15;;;23.52;;
69226;SDS011;56334;52.398;7.552;2023-02-23T05:36:14;62.30;;;25.17;;
69226;SDS011;56334;52.398;7.552;2023-02-23T05:38:42;68.60;;;24.30;;
69226;SDS011;56334;52.398;7.552;2023-02-23T05:41:17;52.42;;;20.33;;
69226;SDS011;56334;52.398;7.552;2023-02-23T05:43:43;77.90;;;26.77;;
69226;SDS011;56334;52.398;7.552;2023-02-23T05:46:14;73.60;;;25.88;;
69226;SDS011;56334;52.398;7.552;2023-02-23T05:48:41;73.55;;;25.77;;
69226;SDS011;56334;52.398;7.552;2023-02-23T05:51:08;73.10;;;26.20;;
69226;SDS011;56334;52.398;7.552;2023-02-23T05:53:35;54.50;;;21.13;;
69226;SDS011;56334;52.398;7.552;2023-02-23T05:56:02;72.28;;;25.20;;
69226;SDS011;56334;52.398;7.552;2023-02-23T05:58:29;69.63;;;24.58;;
69226;SDS011;56334;52.398;7.552;2023-02-23T06:00:55;66.78;;;24.70;;
69226;SDS011;56334;52.398;7.552;2023-02-23T06:03:21;72.68;;;26.90;;
69226;SDS011;56334;52.398;7.552;2023-02-23T06:05:54;65.65;;;23.38;;
69226;SDS011;56334;52.398;7.552;2023-02-23T06:08:21;66.70;;;23.27;;
69226;SDS011;56334;52.398;7.552;2023-02-23T06:10:47;79.10;;;27.08;;
69226;SDS011;56334;52.398;7.552;2023-02-23T06:13:13;78.22;;;26.70;;
69226;SDS011;56334;52.398;7.552;2023-02-23T06:15:39;77.40;;;26.45;;
69226;SDS011;56334;52.398;7.552;2023-02-23T06:18:06;77.63;;;27.02;;
69226;SDS011;56334;52.398;7.552;2023-02-23T06:20:33;75.65;;;25.88;;
69226;SDS011;56334;52.398;7.552;2023-02-23T06:22:59;66.25;;;25.25;;
69226;SDS011;56334;52.398;7.552;2023-02-23T06:25:25;65.65;;;22.25;;
69226;SDS011;56334;52.398;7.552;2023-02-23T06:27:51;67.05;;;24.92;;
69226;SDS011;56334;52.398;7.552;2023-02-23T06:30:18;77.43;;;27.67;;
69226;SDS011;56334;52.398;7.552;2023-02-23T06:32:44;75.18;;;26.42;;
69226;SDS011;56334;52.398;7.552;2023-02-23T06:35:11;66.20;;;24.92;;
69226;SDS011;56334;52.398;7.552;2023-02-23T06:37:37;74.38;;;24.48;;
69226;SDS011;56334;52.398;7.552;2023-02-23T06:40:03;62.90;;;21.73;;
69226;SDS011;56334;52.398;7.552;2023-02-23T06:42:29;83.80;;;28.35;;
69226;SDS011;56334;52.398;7.552;2023-02-23T06:44:55;60.35;;;20.58;;
69226;SDS011;56334;52.398;7.552;2023-02-23T06:47:21;57.97;;;21.42;;
69226;SDS011;56334;52.398;7.552;2023-02-23T06:49:47;71.00;;;24.92;;
69226;SDS011;56334;52.398;7.552;2023-02-23T06:52:14;72.22;;;23.23;;
69226;SDS011;56334;52.398;7.552;2023-02-23T06:54:40;60.80;;;22.85;;
69226;SDS011;56334;52.398;7.552;2023-02-23T06:57:07;77.72;;;24.88;;
69226;SDS011;56334;52.398;7.552;2023-02-23T06:59:33;81.18;;;27.23;;
69226;SDS011;56334;52.398;7.552;2023-02-23T07:02:00;73.30;;;25.10;;
69226;SDS011;56334;52.398;7.552;2023-02-23T07:04:28;72.40;;;24.98;;
69226;SDS011;56334;52.398;7.552;2023-02-23T07:06:54;69.90;;;23.83;;
69226;SDS011;56334;52.398;7.552;2023-02-23T07:09:20;71.93;;;23.33;;
69226;SDS011;56334;52.398;7.552;2023-02-23T07:11:47;75.75;;;24.88;;
69226;SDS011;56334;52.398;7.552;2023-02-23T07:14:13;80.78;;;27.38;;
69226;SDS011;56334;52.398;7.552;2023-02-23T07:16:39;80.95;;;28.83;;
69226;SDS011;56334;52.398;7.552;2023-02-23T07:19:12;78.75;;;26.38;;
69226;SDS011;56334;52.398;7.552;2023-02-23T07:21:38;85.43;;;28.38;;
69226;SDS011;56334;52.398;7.552;2023-02-23T07:26:34;69.15;;;24.05;;
69226;SDS011;56334;52.398;7.552;2023-02-23T07:29:01;63.83;;;22.77;;
69226;SDS011;56334;52.398;7.552;2023-02-23T07:31:27;89.53;;;28.45;;
69226;SDS011;56334;52.398;7.552;2023-02-23T07:33:54;91.25;;;26.70;;
69226;SDS011;56334;52.398;7.552;2023-02-23T07:36:20;85.10;;;27.92;;
69226;SDS011;56334;52.398;7.552;2023-02-23T07:38:48;86.60;;;27.38;;
69226;SDS011;56334;52.398;7.552;2023-02-23T07:41:15;85.03;;;28.00;;
69226;SDS011;56334;52.398;7.552;2023-02-23T07:43:41;77.75;;;26.35;;
69226;SDS011;56334;52.398;7.552;2023-02-23T07:46:07;89.18;;;27.83;;
69226;SDS011;56334;52.398;7.552;2023-02-23T07:48:33;84.53;;;27.50;;
69226;SDS011;56334;52.398;7.552;2023-02-23T07:50:59;86.22;;;28.33;;
69226;SDS011;56334;52.398;7.552;2023-02-23T07:53:25;89.68;;;27.55;;
69226;SDS011;56334;52.398;7.552;2023-02-23T07:55:56;89.50;;;26.77;;
69226;SDS011;56334;52.398;7.552;2023-02-23T07:58:22;83.65;;;25.38;;
69226;SDS011;56334;52.398;7.552;2023-02-23T08:00:48;79.07;;;25.90;;
69226;SDS011;56334;52.398;7.552;2023-02-23T08:03:14;88.70;;;27.25;;
69226;SDS011;56334;52.398;7.552;2023-02-23T08:05:40;86.90;;;27.80;;
69226;SDS011;56334;52.398;7.552;2023-02-23T08:08:08;79.93;;;24.00;;
69226;SDS011;56334;52.398;7.552;2023-02-23T08:10:35;85.28;;;26.55;;
69226;SDS011;56334;52.398;7.552;2023-02-23T08:13:03;87.05;;;27.25;;
69226;SDS011;56334;52.398;7.552;2023-02-23T08:15:30;99.93;;;28.48;;
69226;SDS011;56334;52.398;7.552;2023-02-23T08:17:56;89.38;;;27.88;;
69226;SDS011;56334;52.398;7.552;2023-02-23T08:20:23;107.03;;;28.58;;
69226;SDS011;56334;52.398;7.552;2023-02-23T08:22:52;100.47;;;27.63;;
69226;SDS011;56334;52.398;7.552;2023-02-23T08:25:22;102.30;;;28.23;;
69226;SDS011;56334;52.398;7.552;2023-02-23T08:30:28;103.63;;;28.27;;
69226;SDS011;56334;52.398;7.552;2023-02-23T08:32:57;94.05;;;27.15;;
69226;SDS011;56334;52.398;7.552;2023-02-23T08:35:23;110.00;;;27.25;;
69226;SDS011;56334;52.398;7.552;2023-02-23T08:37:49;101.68;;;26.58;;
69226;SDS011;56334;52.398;7.552;2023-02-23T08:40:16;109.70;;;29.45;;
69226;SDS011;56334;52.398;7.552;2023-02-23T08:42:43;100.07;;;26.75;;
69226;SDS011;56334;52.398;7.552;2023-02-23T08:45:10;98.55;;;27.55;;
69226;SDS011;56334;52.398;7.552;2023-02-23T08:47:36;96.95;;;25.48;;
69226;SDS011;56334;52.398;7.552;2023-02-23T08:50:03;99.80;;;25.90;;
69226;SDS011;56334;52.398;7.552;2023-02-23T08:52:29;97.57;;;27.80;;
69226;SDS011;56334;52.398;7.552;2023-02-23T08:54:55;87.60;;;24.73;;
69226;SDS011;56334;52.398;7.552;2023-02-23T08:57:22;92.90;;;22.98;;
69226;SDS011;56334;52.398;7.552;2023-02-23T08:59:48;91.68;;;24.38;;
69226;SDS011;56334;52.398;7.552;2023-02-23T09:02:14;83.32;;;23.73;;
69226;SDS011;56334;52.398;7.552;2023-02-23T09:04:40;90.50;;;22.85;;
69226;SDS011;56334;52.398;7.552;2023-02-23T09:07:07;86.03;;;21.85;;
69226;SDS011;56334;52.398;7.552;2023-02-23T09:09:34;92.75;;;22.55;;
69226;SDS011;56334;52.398;7.552;2023-02-23T09:12:01;87.43;;;22.33;;
69226;SDS011;56334;52.398;7.552;2023-02-23T09:14:27;83.90;;;23.13;;
69226;SDS011;56334;52.398;7.552;2023-02-23T09:16:54;87.53;;;23.85;;
69226;SDS011;56334;52.398;7.552;2023-02-23T09:19:20;87.82;;;24.60;;
69226;SDS011;56334;52.398;7.552;2023-02-23T09:21:46;87.10;;;23.23;;
69226;SDS011;56334;52.398;7.552;2023-02-23T09:24:12;85.63;;;24.30;;
69226;SDS011;56334;52.398;7.552;2023-02-23T09:26:38;87.57;;;24.08;;
69226;SDS011;56334;52.398;7.552;2023-02-23T09:29:04;77.88;;;21.45;;
69226;SDS011;56334;52.398;7.552;2023-02-23T09:31:31;83.05;;;22.63;;
69226;SDS011;56334;52.398;7.552;2023-02-23T09:33:57;96.32;;;23.90;;
69226;SDS011;56334;52.398;7.552;2023-02-23T09:36:27;85.93;;;24.33;;
69226;SDS011;56334;52.398;7.552;2023-02-23T09:38:55;79.00;;;24.52;;
69226;SDS011;56334;52.398;7.552;2023-02-23T09:47:00;80.47;;;22.17;;
69226;SDS011;56334;52.398;7.552;2023-02-23T09:49:31;66.93;;;19.70;;
69226;SDS011;56334;52.398;7.552;2023-02-23T09:51:59;77.30;;;21.60;;
69226;SDS011;56334;52.398;7.552;2023-02-23T09:54:32;75.65;;;21.45;;
69226;SDS011;56334;52.398;7.552;2023-02-23T09:57:00;72.68;;;20.35;;
69226;SDS011;56334;52.398;7.552;2023-02-23T09:59:27;74.72;;;19.55;;
69226;SDS011;56334;52.398;7.552;2023-02-23T10:06:49;62.72;;;17.30;;
69226;SDS011;56334;52.398;7.552;2023-02-23T10:09:28;60.58;;;18.83;;
69226;SDS011;56334;52.398;7.552;2023-02-23T10:19:31;68.57;;;19.77;;
69226;SDS011;56334;52.398;7.552;2023-02-23T10:22:03;57.55;;;17.58;;
69226;SDS011;56334;52.398;7.552;2023-02-23T10:24:35;54.75;;;16.98;;
69226;SDS011;56334;52.398;7.552;2023-02-23T10:27:04;51.92;;;15.30;;
69226;SDS011;56334;52.398;7.552;2023-02-23T10:29:35;66.07;;;18.55;;
69226;SDS011;56334;52.398;7.552;2023-02-23T10:32:04;51.03;;;15.73;;
69226;SDS011;56334;52.398;7.552;2023-02-23T10:34:30;53.70;;;16.05;;
69226;SDS011;56334;52.398;7.552;2023-02-23T10:36:58;56.90;;;16.73;;
69226;SDS011;56334;52.398;7.552;2023-02-23T10:39:24;49.78;;;15.27;;
69226;SDS011;56334;52.398;7.552;2023-02-23T10:41:51;55.15;;;15.48;;
69226;SDS011;56334;52.398;7.552;2023-02-23T10:44:21;49.90;;;16.27;;
69226;SDS011;56334;52.398;7.552;2023-02-23T10:46:58;48.00;;;15.95;;
69226;SDS011;56334;52.398;7.552;2023-02-23T10:49:31;42.00;;;12.75;;
69226;SDS011;56334;52.398;7.552;2023-02-23T10:52:00;26.30;;;8.32;;
69226;SDS011;56334;52.398;7.552;2023-02-23T10:57:03;41.80;;;12.05;;
69226;SDS011;56334;52.398;7.552;2023-02-23T10:59:30;42.03;;;11.98;;
69226;SDS011;56334;52.398;7.552;2023-02-23T11:01:56;49.42;;;14.25;;
69226;SDS011;56334;52.398;7.552;2023-02-23T11:04:23;49.35;;;13.68;;
69226;SDS011;56334;52.398;7.552;2023-02-23T11:06:50;33.58;;;10.00;;
69226;SDS011;56334;52.398;7.552;2023-02-23T11:09:31;50.08;;;13.27;;
69226;SDS011;56334;52.398;7.552;2023-02-23T11:11:59;43.05;;;11.32;;
69226;SDS011;56334;52.398;7.552;2023-02-23T11:14:26;45.10;;;12.10;;
69226;SDS011;56334;52.398;7.552;2023-02-23T11:16:54;51.00;;;14.27;;
69226;SDS011;56334;52.398;7.552;2023-02-23T11:19:23;41.92;;;13.15;;
69226;SDS011;56334;52.398;7.552;2023-02-23T11:21:52;40.08;;;12.15;;
69226;SDS011;56334;52.398;7.552;2023-02-23T11:26:44;37.58;;;11.82;;
69226;SDS011;56334;52.398;7.552;2023-02-23T11:29:13;35.70;;;10.20;;
69226;SDS011;56334;52.398;7.552;2023-02-23T11:31:39;43.45;;;11.70;;
69226;SDS011;56334;52.398;7.552;2023-02-23T11:34:16;46.47;;;12.40;;
69226;SDS011;56334;52.398;7.552;2023-02-23T11:36:44;41.15;;;11.23;;
69226;SDS011;56334;52.398;7.552;2023-02-23T11:39:22;41.63;;;12.60;;
69226;SDS011;56334;52.398;7.552;2023-02-23T11:42:09;43.00;;;11.65;;
69226;SDS011;56334;52.398;7.552;2023-02-23T11:44:39;48.88;;;12.35;;
69226;SDS011;56334;52.398;7.552;2023-02-23T11:47:10;41.53;;;12.40;;
69226;SDS011;56334;52.398;7.552;2023-02-23T11:49:38;41.35;;;11.90;;
69226;SDS011;56334;52.398;7.552;2023-02-23T11:52:09;38.10;;;11.38;;
69226;SDS011;56334;52.398;7.552;2023-02-23T11:54:36;40.78;;;11.38;;
69226;SDS011;56334;52.398;7.552;2023-02-23T11:57:03;38.63;;;11.57;;
69226;SDS011;56334;52.398;7.552;2023-02-23T12:02:16;39.33;;;11.75;;
69226;SDS011;56334;52.398;7.552;2023-02-23T12:04:43;42.63;;;11.98;;
69226;SDS011;56334;52.398;7.552;2023-02-23T12:07:31;39.40;;;11.85;;
69226;SDS011;56334;52.398;7.552;2023-02-23T12:12:30;38.67;;;10.43;;
69226;SDS011;56334;52.398;7.552;2023-02-23T12:15:05;33.95;;;11.13;;
69226;SDS011;56334;52.398;7.552;2023-02-23T12:17:37;40.33;;;11.32;;
69226;SDS011;56334;52.398;7.552;2023-02-23T12:22:36;37.88;;;11.68;;
69226;SDS011;56334;52.398;7.552;2023-02-23T12:25:15;31.95;;;9.40;;
69226;SDS011;56334;52.398;7.552;2023-02-23T12:28:09;37.00;;;11.25;;
69226;SDS011;56334;52.398;7.552;2023-02-23T12:30:41;37.67;;;11.73;;
69226;SDS011;56334;52.398;7.552;2023-02-23T12:33:30;37.17;;;11.15;;
69226;SDS011;56334;52.398;7.552;2023-02-23T12:36:11;44.35;;;12.30;;
69226;SDS011;56334;52.398;7.552;2023-02-23T12:38:49;42.35;;;12.77;;
69226;SDS011;56334;52.398;7.552;2023-02-23T12:41:19;42.63;;;13.02;;
69226;SDS011;56334;52.398;7.552;2023-02-23T12:43:59;41.53;;;12.57;;
69226;SDS011;56334;52.398;7.552;2023-02-23T12:46:30;39.65;;;12.55;;
69226;SDS011;56334;52.398;7.552;2023-02-23T12:51:49;29.23;;;9.70;;
69226;SDS011;56334;52.398;7.552;2023-02-23T12:54:17;38.70;;;10.77;;
69226;SDS011;56334;52.398;7.552;2023-02-23T13:12:17;33.33;;;9.90;;
69226;SDS011;56334;52.398;7.552;2023-02-23T13:14:51;38.33;;;12.43;;
69226;SDS011;56334;52.398;7.552;2023-02-23T13:19:57;38.55;;;11.98;;
69226;SDS011;56334;52.398;7.552;2023-02-23T13:22:36;35.80;;;10.95;;
69226;SDS011;56334;52.398;7.552;2023-02-23T13:25:06;36.30;;;11.25;;
69226;SDS011;56334;52.398;7.552;2023-02-23T13:27:44;36.97;;;10.75;;
69226;SDS011;56334;52.398;7.552;2023-02-23T13:30:12;37.15;;;11.68;;
69226;SDS011;56334;52.398;7.552;2023-02-23T13:32:40;28.25;;;8.68;;
69226;SDS011;56334;52.398;7.552;2023-02-23T13:35:12;32.78;;;9.93;;
69226;SDS011;56334;52.398;7.552;2023-02-23T13:38:13;35.95;;;11.75;;
69226;SDS011;56334;52.398;7.552;2023-02-23T13:40:45;33.92;;;11.43;;
69226;SDS011;56334;52.398;7.552;2023-02-23T13:43:27;36.05;;;11.10;;
69226;SDS011;56334;52.398;7.552;2023-02-23T13:53:44;31.50;;;10.23;;
69226;SDS011;56334;52.398;7.552;2023-02-23T13:56:17;30.27;;;10.18;;
69226;SDS011;56334;52.398;7.552;2023-02-23T13:58:45;31.80;;;9.20;;
69226;SDS011;56334;52.398;7.552;2023-02-23T14:01:31;34.72;;;11.02;;
69226;SDS011;56334;52.398;7.552;2023-02-23T14:04:02;30.58;;;11.05;;
69226;SDS011;56334;52.398;7.552;2023-02-23T14:06:29;33.00;;;10.70;;
69226;SDS011;56334;52.398;7.552;2023-02-23T14:08:57;30.58;;;10.18;;
69226;SDS011;56334;52.398;7.552;2023-02-23T14:17:09;30.58;;;8.95;;
69226;SDS011;56334;52.398;7.552;2023-02-23T14:19:41;31.52;;;9.20;;
69226;SDS011;56334;52.398;7.552;2023-02-23T14:22:08;29.08;;;8.95;;
69226;SDS011;56334;52.398;7.552;2023-02-23T14:24:35;26.83;;;8.73;;
69226;SDS011;56334;52.398;7.552;2023-02-23T14:27:21;27.98;;;8.38;;
69226;SDS011;56334;52.398;7.552;2023-02-23T14:32:47;29.10;;;10.00;;
69226;SDS011;56334;52.398;7.552;2023-02-23T14:38:32;27.23;;;8.55;;
69226;SDS011;56334;52.398;7.552;2023-02-23T14:40:51;25.73;;;8.00;;
69226;SDS011;56334;52.398;7.552;2023-02-23T14:43:51;24.42;;;8.13;;
69226;SDS011;56334;52.398;7.552;2023-02-23T14:46:15;26.27;;;8.73;;
69226;SDS011;56334;52.398;7.552;2023-02-23T14:48:43;29.23;;;9.35;;
69226;SDS011;56334;52.398;7.552;2023-02-23T14:53:35;27.23;;;9.43;;
69226;SDS011;56334;52.398;7.552;2023-02-23T14:56:04;25.92;;;8.32;;
69226;SDS011;56334;52.398;7.552;2023-02-23T14:58:30;30.40;;;9.32;;
69226;SDS011;56334;52.398;7.552;2023-02-23T15:00:57;27.45;;;8.48;;
69226;SDS011;56334;52.398;7.552;2023-02-23T15:03:23;29.67;;;7.47;;
69226;SDS011;56334;52.398;7.552;2023-02-23T15:05:56;28.00;;;8.23;;
69226;SDS011;56334;52.398;7.552;2023-02-23T15:08:24;27.85;;;8.57;;
69226;SDS011;56334;52.398;7.552;2023-02-23T15:11:14;30.23;;;8.07;;
69226;SDS011;56334;52.398;7.552;2023-02-23T15:13:40;25.33;;;7.78;;
69226;SDS011;56334;52.398;7.552;2023-02-23T15:16:14;34.13;;;9.50;;
69226;SDS011;56334;52.398;7.552;2023-02-23T15:18:41;33.03;;;9.57;;
69226;SDS011;56334;52.398;7.552;2023-02-23T15:21:16;34.83;;;9.00;;
69226;SDS011;56334;52.398;7.552;2023-02-23T15:23:43;35.40;;;9.88;;
69226;SDS011;56334;52.398;7.552;2023-02-23T15:26:24;34.22;;;9.43;;
69226;SDS011;56334;52.398;7.552;2023-02-23T15:28:51;36.10;;;10.90;;
69226;SDS011;56334;52.398;7.552;2023-02-23T15:31:17;36.28;;;11.05;;
69226;SDS011;56334;52.398;7.552;2023-02-23T15:33:44;40.72;;;11.00;;
69226;SDS011;56334;52.398;7.552;2023-02-23T15:38:45;38.08;;;10.85;;
69226;SDS011;56334;52.398;7.552;2023-02-23T15:41:16;38.05;;;10.95;;
69226;SDS011;56334;52.398;7.552;2023-02-23T15:43:42;41.25;;;12.02;;
69226;SDS011;56334;52.398;7.552;2023-02-23T15:46:11;36.25;;;11.23;;
69226;SDS011;56334;52.398;7.552;2023-02-23T15:48:47;37.60;;;11.25;;
69226;SDS011;56334;52.398;7.552;2023-02-23T15:51:57;37.67;;;11.80;;
69226;SDS011;56334;52.398;7.552;2023-02-23T15:54:14;36.83;;;10.35;;
69226;SDS011;56334;52.398;7.552;2023-02-23T15:56:41;38.33;;;9.80;;
69226;SDS011;56334;52.398;7.552;2023-02-23T15:59:12;37.95;;;10.40;;
69226;SDS011;56334;52.398;7.552;2023-02-23T16:01:43;37.50;;;10.82;;
69226;SDS011;56334;52.398;7.552;2023-02-23T16:14:21;36.67;;;11.25;;
69226;SDS011;56334;52.398;7.552;2023-02-23T16:16:48;39.35;;;11.63;;
69226;SDS011;56334;52.398;7.552;2023-02-23T16:21:41;46.15;;;13.45;;
69226;SDS011;56334;52.398;7.552;2023-02-23T16:24:11;34.00;;;10.90;;
69226;SDS011;56334;52.398;7.552;2023-02-23T16:26:52;44.42;;;11.57;;
69226;SDS011;56334;52.398;7.552;2023-02-23T16:29:26;48.15;;;12.55;;
69226;SDS011;56334;52.398;7.552;2023-02-23T16:31:57;39.45;;;11.90;;
69226;SDS011;56334;52.398;7.552;2023-02-23T16:36:54;47.28;;;12.60;;
69226;SDS011;56334;52.398;7.552;2023-02-23T16:39:21;45.67;;;12.60;;
69226;SDS011;56334;52.398;7.552;2023-02-23T16:41:49;41.67;;;11.85;;
69226;SDS011;56334;52.398;7.552;2023-02-23T16:44:19;45.83;;;12.65;;
69226;SDS011;56334;52.398;7.552;2023-02-23T16:49:26;46.15;;;12.57;;
69226;SDS011;56334;52.398;7.552;2023-02-23T16:51:56;45.75;;;12.77;;
69226;SDS011;56334;52.398;7.552;2023-02-23T16:54:22;31.98;;;8.85;;
69226;SDS011;56334;52.398;7.552;2023-02-23T16:56:49;49.30;;;11.75;;
69226;SDS011;56334;52.398;7.552;2023-02-23T16:59:19;38.83;;;9.65;;
69226;SDS011;56334;52.398;7.552;2023-02-23T17:01:46;35.70;;;9.50;;
69226;SDS011;56334;52.398;7.552;2023-02-23T17:04:15;45.90;;;10.80;;
69226;SDS011;56334;52.398;7.552;2023-02-23T17:06:42;42.80;;;10.75;;
69226;SDS011;56334;52.398;7.552;2023-02-23T17:09:08;28.65;;;7.68;;
69226;SDS011;56334;52.398;7.552;2023-02-23T17:11:35;40.55;;;10.20;;
69226;SDS011;56334;52.398;7.552;2023-02-23T17:14:01;32.58;;;9.23;;
69226;SDS011;56334;52.398;7.552;2023-02-23T17:16:27;35.65;;;9.98;;